Port Rowan, Canada
Current Conditions -  °F | °C
As of 8:22 PM on Thursday 27 Nov 2014 (Local Time) from KERI Reporting Station
Light Snow Light Snow  
Wind Chill: 21°   Ceiling: 1500
Heat Index: 32°   Visibility: 3mi
Dew Point: 26°   Wind: 16mph
Humidity: 79%   Direction: 300°WNW
Pressure: 30.15"   Gusts: 29mph
Location:  42.63°N, 80.45°W
Report Text: KERI 280122Z 30014G25KT 3SM -SN FEW009 BKN015 OVC026 00/M03 A3015 RMK AO2 PK WND 28028/0109 SNB0052 P0001 T00001033 $
Loading
Personal Weather Stations






























Interactive Weather Map New forecast layout! Learn more

10-Day Weather Forecast

Advertisements
Track Severe Weather on mobile